Lakeview, Nevada
Current Conditions -  °F | °C
As of 9:35 AM on Friday 24 Oct 2014 (Local Time) from KCXP Reporting Station
Clear Clear  
Wind Chill: 55°   Ceiling: Unl
Heat Index: 55°   Visibility: 10mi
Dew Point: 25°   Wind: 0mph
Humidity: 31%   Direction: NA
Pressure: 30.1"   Gusts: NA
Location:  39.1386°N, 119.659°W
Report Text: KCXP 241635Z AUTO 00000KT 10SM CLR 13/M04 A3010 RMK AO2
Loading
Personal Weather Stations






























Interactive Weather Map
Tropical Storm Tracking
New forecast layout! Learn more

10-Day Weather Forecast

Advertisements
Track Severe Weather on mobile